createdAt,value
2024-04-18T00:00:22.243Z,157.95
2024-04-18T00:02:51.936Z,157.48
2024-04-18T00:05:33.944Z,158.57
2024-04-18T00:08:03.690Z,157.70
2024-04-18T00:10:30.821Z,156.55
2024-04-18T00:13:00.518Z,156.50
2024-04-18T00:15:28.071Z,155.32
2024-04-18T00:17:58.254Z,156.20
2024-04-18T00:20:25.814Z,154.57
2024-04-18T00:22:59.178Z,153.93
2024-04-18T00:25:32.672Z,155.82
2024-04-18T00:28:02.479Z,155.93
2024-04-18T00:30:42.949Z,155.23
2024-04-18T00:33:13.081Z,155.13
2024-04-18T00:35:40.780Z,154.90
2024-04-18T00:38:19.385Z,155.07
2024-04-18T00:40:52.027Z,155.75
2024-04-18T00:43:23.032Z,156.48
2024-04-18T00:45:53.625Z,155.93
2024-04-18T00:48:24.594Z,157.07
2024-04-18T00:50:53.296Z,154.60
2024-04-18T00:53:27.912Z,154.85
2024-04-18T00:55:55.750Z,155.13
2024-04-18T00:58:44.762Z,154.50
2024-04-18T01:01:22.025Z,156.25
2024-04-18T01:03:59.138Z,157.00
2024-04-18T01:06:42.489Z,156.35
2024-04-18T01:09:22.935Z,155.80
2024-04-18T01:12:11.185Z,156.05
2024-04-18T01:14:38.372Z,155.95
2024-04-18T01:17:08.757Z,155.57
2024-04-18T01:19:35.922Z,156.10
2024-04-18T01:22:06.331Z,156.45
2024-04-18T01:24:36.332Z,156.07
2024-04-18T01:27:08.979Z,155.57
2024-04-18T01:29:43.237Z,156.15
2024-04-18T01:32:32.898Z,156.02
2024-04-18T01:35:00.167Z,154.43
2024-04-18T01:37:49.000Z,155.57
2024-04-18T01:40:16.554Z,155.52
2024-04-18T01:42:48.984Z,156.15
2024-04-18T01:45:34.106Z,154.85
2024-04-18T01:48:16.254Z,156.00
2024-04-18T01:51:04.249Z,156.02
2024-04-18T01:53:37.695Z,156.05
2024-04-18T01:56:18.212Z,156.35
2024-04-18T01:58:51.150Z,157.23
2024-04-18T02:01:24.075Z,156.48
2024-04-18T02:03:54.542Z,156.43
2024-04-18T02:06:21.725Z,156.80
2024-04-18T02:08:51.548Z,157.13
2024-04-18T02:11:41.311Z,156.88
2024-04-18T02:14:17.105Z,156.80
2024-04-18T02:16:44.462Z,154.95
2024-04-18T02:19:26.599Z,157.85
2024-04-18T02:22:21.987Z,157.32
2024-04-18T02:25:09.927Z,157.15
2024-04-18T02:27:40.042Z,156.88
2024-04-18T02:30:28.219Z,155.32
2024-04-18T02:33:13.797Z,156.38
2024-04-18T02:35:46.750Z,156.75
2024-04-18T02:38:34.722Z,158.30
2024-04-18T02:41:03.025Z,157.38
2024-04-18T02:43:51.729Z,157.35
2024-04-18T02:46:22.158Z,155.85
2024-04-18T02:49:10.307Z,156.90
2024-04-18T02:51:55.663Z,156.38
2024-04-18T02:54:43.989Z,157.60
2024-04-18T02:57:11.266Z,156.50
2024-04-18T02:59:41.195Z,157.15
2024-04-18T03:02:29.074Z,154.77
2024-04-18T03:05:20.531Z,156.65
2024-04-18T03:07:55.861Z,157.25
2024-04-18T03:10:25.727Z,156.07
2024-04-18T03:13:01.845Z,156.05
2024-04-18T03:15:50.257Z,157.50
2024-04-18T03:18:20.161Z,156.73
2024-04-18T03:20:58.506Z,156.57
2024-04-18T03:23:41.678Z,155.23
2024-04-18T03:26:12.215Z,156.55
2024-04-18T03:28:39.481Z,155.50
2024-04-18T03:31:09.303Z,156.60
2024-04-18T03:33:39.070Z,156.43
2024-04-18T03:36:09.471Z,156.70
2024-04-18T03:38:39.194Z,155.85
2024-04-18T03:41:08.901Z,155.65
2024-04-18T03:44:00.128Z,157.52
2024-04-18T03:46:29.867Z,157.15
2024-04-18T03:49:05.140Z,156.20
2024-04-18T03:51:32.354Z,156.88
2024-04-18T03:54:05.630Z,157.90
2024-04-18T03:56:51.571Z,157.27
2024-04-18T03:59:21.312Z,158.32
2024-04-18T04:01:48.673Z,157.70
2024-04-18T04:04:21.169Z,158.45
2024-04-18T04:06:48.467Z,159.50
2024-04-18T04:09:18.206Z,158.32
2024-04-18T04:11:45.363Z,156.90
2024-04-18T04:14:15.102Z,157.32
2024-04-18T04:16:54.382Z,157.75
2024-04-18T04:19:26.823Z,156.90
2024-04-18T04:21:54.466Z,158.25
2024-04-18T04:24:24.270Z,157.70
2024-04-18T04:26:51.654Z,159.32
2024-04-18T04:29:21.423Z,156.52
2024-04-18T04:31:48.643Z,157.15
2024-04-18T04:34:18.435Z,157.50
2024-04-18T04:36:48.365Z,155.88
2024-04-18T04:39:18.197Z,156.35
2024-04-18T04:41:45.382Z,156.30
2024-04-18T04:44:15.091Z,156.88
2024-04-18T04:46:48.566Z,156.63
2024-04-18T04:49:21.221Z,156.20
2024-04-18T04:52:03.822Z,158.35
2024-04-18T04:54:43.929Z,157.13
2024-04-18T04:57:11.462Z,156.98
2024-04-18T04:59:41.655Z,156.98
2024-04-18T05:02:08.914Z,157.65
2024-04-18T05:07:34.361Z,160.02
2024-04-18T05:10:22.905Z,158.90
2024-04-18T05:12:51.318Z,158.60
2024-04-18T05:15:40.515Z,158.02
2024-04-18T05:18:10.801Z,157.45
2024-04-18T05:20:41.530Z,156.52
2024-04-18T05:23:11.278Z,156.27
2024-04-18T05:25:41.022Z,155.85
2024-04-18T05:28:31.541Z,158.38
2024-04-18T05:31:04.815Z,157.93
2024-04-18T05:33:35.385Z,160.30
2024-04-18T05:36:05.866Z,157.13
2024-04-18T05:38:38.202Z,157.65
2024-04-18T05:41:08.100Z,157.73
2024-04-18T05:43:53.125Z,157.82
2024-04-18T05:46:22.995Z,157.38
2024-04-18T05:48:52.952Z,157.98
2024-04-18T05:51:20.221Z,157.10
2024-04-18T05:54:18.341Z,158.50
2024-04-18T05:57:07.181Z,157.52
2024-04-18T05:59:55.223Z,156.30
2024-04-18T06:02:25.370Z,156.52
2024-04-18T06:04:55.174Z,157.30
2024-04-18T06:07:46.143Z,158.57
2024-04-18T06:10:19.129Z,157.30
2024-04-18T06:12:49.014Z,157.40
2024-04-18T06:15:19.474Z,157.70
2024-04-18T06:17:46.834Z,157.45
2024-04-18T06:20:17.108Z,157.32
2024-04-18T06:22:46.838Z,156.90
2024-04-18T06:28:02.655Z,159.88
2024-04-18T06:30:32.494Z,158.52
2024-04-18T06:33:02.387Z,157.27
2024-04-18T06:35:32.181Z,157.30
2024-04-18T06:38:02.133Z,158.07
2024-04-18T06:40:34.495Z,157.13
2024-04-18T06:43:04.296Z,157.68
2024-04-18T06:45:34.743Z,157.38
2024-04-18T06:48:04.717Z,157.48
2024-04-18T06:50:34.561Z,158.50
2024-04-18T06:53:04.266Z,157.25
2024-04-18T06:55:37.517Z,156.90
2024-04-18T06:58:07.593Z,157.70
2024-04-18T07:00:39.111Z,155.95
2024-04-18T07:03:13.120Z,155.38
2024-04-18T07:05:54.992Z,158.23
2024-04-18T07:08:25.367Z,156.50
2024-04-18T07:11:00.051Z,155.02
2024-04-18T07:13:32.573Z,156.93
2024-04-18T07:16:04.555Z,154.90
2024-04-18T07:18:52.893Z,155.25
2024-04-18T07:21:22.735Z,155.40
2024-04-18T07:23:49.993Z,153.93
2024-04-18T07:26:41.146Z,154.23
2024-04-18T07:29:10.989Z,155.07
2024-04-18T07:31:40.885Z,154.35
2024-04-18T07:34:17.063Z,155.30
2024-04-18T07:36:48.920Z,153.95
2024-04-18T07:39:20.027Z,154.23
2024-04-18T07:41:52.726Z,155.13
2024-04-18T07:44:24.700Z,154.63
2024-04-18T07:46:54.935Z,154.25
2024-04-18T07:49:24.807Z,153.90
2024-04-18T07:54:26.545Z,153.73
2024-04-18T07:56:56.865Z,153.55
2024-04-18T07:59:27.393Z,153.30
2024-04-18T08:01:59.737Z,153.80
2024-04-18T08:04:50.301Z,153.00
2024-04-18T08:07:22.525Z,153.68
2024-04-18T08:09:57.264Z,153.15
2024-04-18T08:12:35.251Z,152.80
2024-04-18T08:15:14.132Z,153.85
2024-04-18T08:17:46.962Z,153.93
2024-04-18T08:20:16.767Z,153.10
2024-04-18T08:22:46.496Z,153.02
2024-04-18T08:25:16.274Z,152.07
2024-04-18T08:27:48.753Z,152.90
2024-04-18T08:30:18.915Z,152.68
2024-04-18T08:32:48.734Z,153.25
2024-04-18T08:35:20.323Z,155.50
2024-04-18T08:37:51.596Z,152.82
2024-04-18T08:40:21.587Z,154.18
2024-04-18T08:42:53.916Z,154.48
2024-04-18T08:45:25.796Z,155.65
2024-04-18T08:47:56.546Z,155.68
2024-04-18T08:50:26.932Z,156.20
2024-04-18T08:52:58.290Z,156.43
2024-04-18T08:55:28.127Z,156.43
2024-04-18T08:58:05.751Z,155.95
2024-04-18T09:00:36.330Z,155.27
2024-04-18T09:03:08.212Z,155.35
2024-04-18T09:05:39.512Z,154.02
2024-04-18T09:08:10.986Z,153.73
2024-04-18T09:10:41.457Z,152.98
2024-04-18T09:13:14.111Z,152.55
2024-04-18T09:15:43.818Z,152.82
2024-04-18T09:18:13.602Z,152.93
2024-04-18T09:20:44.732Z,151.90
2024-04-18T09:23:14.596Z,152.65
2024-04-18T09:25:45.976Z,151.85
2024-04-18T09:28:21.649Z,152.52
2024-04-18T09:30:58.416Z,152.43
2024-04-18T09:33:28.960Z,152.52
2024-04-18T09:36:01.189Z,151.88
2024-04-18T09:38:33.980Z,153.48
2024-04-18T09:41:08.338Z,153.32
2024-04-18T09:43:48.261Z,153.73
2024-04-18T09:46:19.676Z,153.68
2024-04-18T09:48:50.103Z,152.32
2024-04-18T09:51:20.922Z,152.23
2024-04-18T09:53:50.846Z,152.82
2024-04-18T09:56:22.919Z,152.45
2024-04-18T09:58:56.279Z,152.63
2024-04-18T10:01:26.508Z,151.55
2024-04-18T10:03:56.556Z,152.10
2024-04-18T10:06:34.769Z,151.82
2024-04-18T10:09:07.134Z,151.57
2024-04-18T10:11:37.813Z,153.02
2024-04-18T10:14:11.323Z,150.88
2024-04-18T10:16:50.204Z,151.40
2024-04-18T10:19:24.771Z,152.82
2024-04-18T10:22:11.707Z,152.23
2024-04-18T10:24:53.698Z,152.88
2024-04-18T10:30:03.045Z,153.95
2024-04-18T10:32:34.491Z,154.48
2024-04-18T10:35:04.558Z,153.10
2024-04-18T10:37:34.259Z,155.75
2024-04-18T10:40:06.571Z,153.18
2024-04-18T10:42:40.742Z,154.05
2024-04-18T10:45:11.365Z,156.43
2024-04-18T10:47:44.203Z,160.40
2024-04-18T10:50:14.156Z,160.13
2024-04-18T10:52:43.971Z,162.45
2024-04-18T10:55:13.746Z,163.65
2024-04-18T10:57:43.604Z,162.60
2024-04-18T11:00:19.983Z,163.63
2024-04-18T11:02:49.856Z,160.35
2024-04-18T11:05:19.791Z,162.77
2024-04-18T11:07:52.071Z,162.05
2024-04-18T11:10:22.339Z,163.32
2024-04-18T11:12:52.278Z,163.65
2024-04-18T11:15:24.689Z,162.50
2024-04-18T11:17:55.203Z,162.27
2024-04-18T11:20:25.251Z,163.93
2024-04-18T11:23:05.516Z,162.45
2024-04-18T11:25:43.157Z,162.88
2024-04-18T11:28:13.153Z,162.57
2024-04-18T11:30:46.464Z,163.25
2024-04-18T11:33:16.418Z,163.35
2024-04-18T11:35:46.682Z,165.35
2024-04-18T11:38:20.371Z,163.18
2024-04-18T11:40:50.146Z,163.15
2024-04-18T11:43:19.976Z,160.70
2024-04-18T11:45:52.438Z,160.20
2024-04-18T11:48:19.773Z,159.80
2024-04-18T11:50:50.703Z,159.05
2024-04-18T11:53:20.454Z,159.10
2024-04-18T11:55:50.231Z,158.18
2024-04-18T11:58:32.139Z,158.27
2024-04-18T12:01:04.607Z,159.32
2024-04-18T12:03:44.744Z,159.10
2024-04-18T12:06:33.214Z,159.50
2024-04-18T12:09:00.612Z,158.48
2024-04-18T12:11:33.952Z,159.02
2024-04-18T12:14:15.844Z,159.65
2024-04-18T12:17:00.694Z,159.90
2024-04-18T12:19:45.908Z,159.23
2024-04-18T12:22:34.850Z,159.30
2024-04-18T12:25:18.111Z,160.52
2024-04-18T12:27:48.298Z,159.00
2024-04-18T12:30:33.678Z,160.18
2024-04-18T12:33:24.445Z,160.45
2024-04-18T12:35:54.379Z,161.00
2024-04-18T12:38:24.466Z,163.32
2024-04-18T12:41:03.846Z,165.00
2024-04-18T12:43:35.958Z,164.13
2024-04-18T12:46:26.008Z,163.90
2024-04-18T12:48:59.229Z,163.02
2024-04-18T12:51:29.235Z,161.90
2024-04-18T12:53:59.937Z,163.13
2024-04-18T12:56:50.181Z,163.35
2024-04-18T12:59:26.931Z,163.05
2024-04-18T13:01:57.530Z,163.43
2024-04-18T13:04:32.419Z,164.30
2024-04-18T13:06:59.954Z,166.23
2024-04-18T13:09:33.419Z,164.48
2024-04-18T13:12:04.180Z,169.35
2024-04-18T13:14:53.653Z,167.80
2024-04-18T13:17:23.771Z,167.13
2024-04-18T13:19:56.327Z,166.95
2024-04-18T13:22:26.202Z,169.15
2024-04-18T13:24:55.950Z,183.10
2024-04-18T13:27:31.037Z,185.00
2024-04-18T13:30:02.375Z,168.80
2024-04-18T13:32:36.358Z,167.45
2024-04-18T13:35:10.018Z,167.77
2024-04-18T13:37:40.196Z,165.88
2024-04-18T13:40:19.026Z,165.35
2024-04-18T13:43:02.653Z,165.00
2024-04-18T13:45:34.329Z,165.82
2024-04-18T13:48:04.903Z,160.85
2024-04-18T13:50:52.762Z,162.25
2024-04-18T13:53:22.570Z,162.43
2024-04-18T13:55:52.554Z,160.93
2024-04-18T13:58:21.123Z,161.13
2024-04-18T14:01:02.137Z,164.02
2024-04-18T14:03:32.786Z,161.02
2024-04-18T14:06:12.083Z,162.13
2024-04-18T14:08:42.336Z,161.88
2024-04-18T14:11:31.997Z,161.32
2024-04-18T14:14:09.089Z,161.27
2024-04-18T14:16:55.203Z,159.38
2024-04-18T14:19:36.283Z,159.48
2024-04-18T14:22:11.247Z,158.50
2024-04-18T14:24:41.589Z,158.85
2024-04-18T14:27:20.038Z,158.35
2024-04-18T14:30:02.239Z,158.35
2024-04-18T14:32:37.935Z,158.02
2024-04-18T14:35:09.852Z,157.77
2024-04-18T14:37:42.197Z,157.15
2024-04-18T14:40:13.641Z,157.95
2024-04-18T14:42:43.925Z,158.48
2024-04-18T14:45:15.143Z,157.73
2024-04-18T14:47:44.954Z,157.95
2024-04-18T14:50:14.896Z,158.20
2024-04-18T14:52:47.266Z,158.52
2024-04-18T14:55:32.405Z,159.93
2024-04-18T14:58:16.727Z,159.23
2024-04-18T15:00:54.191Z,160.13
2024-04-18T15:03:24.507Z,158.63
2024-04-18T15:05:58.279Z,160.05
2024-04-18T15:08:44.843Z,160.52
2024-04-18T15:11:26.466Z,158.95
2024-04-18T15:14:07.337Z,155.23
2024-04-18T15:16:37.624Z,155.70
2024-04-18T15:19:07.559Z,156.82
2024-04-18T15:21:56.226Z,155.95
2024-04-18T15:24:26.322Z,155.98
2024-04-18T15:27:07.099Z,154.93
2024-04-18T15:29:37.608Z,154.93
2024-04-18T15:32:25.711Z,155.43
2024-04-18T15:35:14.510Z,155.70
2024-04-18T15:38:03.063Z,154.85
2024-04-18T15:40:38.446Z,155.35
2024-04-18T15:43:08.501Z,155.70
2024-04-18T15:45:42.484Z,155.57
2024-04-18T15:48:24.579Z,155.02
2024-04-18T15:50:57.152Z,154.68
2024-04-18T15:53:32.951Z,155.15
2024-04-18T15:56:12.566Z,155.65
2024-04-18T15:59:02.785Z,155.40
2024-04-18T16:01:50.738Z,157.18
2024-04-18T16:04:43.873Z,156.18
2024-04-18T16:07:13.842Z,155.75
2024-04-18T16:09:56.097Z,156.02
2024-04-18T16:12:28.599Z,156.27
2024-04-18T16:15:06.641Z,156.85
2024-04-18T16:17:37.209Z,157.07
2024-04-18T16:20:13.468Z,157.05
2024-04-18T16:22:43.625Z,157.35
2024-04-18T16:25:33.417Z,157.80
2024-04-18T16:28:07.002Z,157.75
2024-04-18T16:30:48.588Z,157.23
2024-04-18T16:33:18.728Z,157.05
2024-04-18T16:35:48.590Z,157.13
2024-04-18T16:38:18.713Z,157.70
2024-04-18T16:40:53.383Z,156.55
2024-04-18T16:43:38.048Z,155.77
2024-04-18T16:46:09.167Z,155.98
2024-04-18T16:48:40.044Z,156.05
2024-04-18T16:51:10.130Z,154.85
2024-04-18T16:53:59.066Z,155.43
2024-04-18T16:56:37.511Z,155.70
2024-04-18T16:59:11.180Z,155.02
2024-04-18T17:01:41.033Z,154.75
2024-04-18T17:04:08.253Z,154.15
2024-04-18T17:06:45.569Z,154.65
2024-04-18T17:09:18.644Z,154.88
2024-04-18T17:11:48.768Z,154.48
2024-04-18T17:14:41.448Z,154.10
2024-04-18T17:17:11.190Z,153.75
2024-04-18T17:19:58.999Z,155.52
2024-04-18T17:22:28.914Z,153.88
2024-04-18T17:24:56.097Z,153.80
2024-04-18T17:27:26.848Z,154.55
2024-04-18T17:29:59.603Z,154.80
2024-04-18T17:32:29.398Z,153.40
2024-04-18T17:34:59.200Z,151.95
2024-04-18T17:37:43.874Z,153.82
2024-04-18T17:40:25.388Z,153.80
2024-04-18T17:43:01.194Z,154.93
2024-04-18T17:45:34.241Z,154.05
2024-04-18T17:48:16.474Z,153.88
2024-04-18T17:50:46.333Z,154.98
2024-04-18T17:53:16.067Z,153.20
2024-04-18T17:55:45.827Z,153.38
2024-04-18T17:58:15.611Z,153.77
2024-04-18T18:00:48.327Z,154.07
2024-04-18T18:03:18.268Z,153.68
2024-04-18T18:05:45.678Z,154.57
2024-04-18T18:08:30.804Z,155.30
2024-04-18T18:11:20.638Z,155.70
2024-04-18T18:13:53.206Z,154.45
2024-04-18T18:16:26.192Z,154.93
2024-04-18T18:18:56.113Z,155.65
2024-04-18T18:21:26.504Z,155.52
2024-04-18T18:23:56.310Z,156.80
2024-04-18T18:26:40.060Z,156.55
2024-04-18T18:29:09.185Z,155.05
2024-04-18T18:32:00.236Z,156.73
2024-04-18T18:34:27.463Z,155.73
2024-04-18T18:36:57.262Z,156.30
2024-04-18T18:39:29.735Z,156.73
2024-04-18T18:41:57.245Z,157.32
2024-04-18T18:44:28.680Z,156.48
2024-04-18T18:46:58.604Z,157.85
2024-04-18T18:49:48.397Z,157.15
2024-04-18T18:52:15.645Z,156.73
2024-04-18T18:54:45.575Z,156.95
2024-04-18T18:57:12.894Z,156.52
2024-04-18T18:59:46.177Z,157.00
2024-04-18T19:02:16.348Z,157.02
2024-04-18T19:05:04.725Z,157.75
2024-04-18T19:07:31.919Z,158.85
2024-04-18T19:10:01.799Z,157.95
2024-04-18T19:12:29.103Z,157.45
2024-04-18T19:15:01.315Z,157.68
2024-04-18T19:17:32.087Z,157.10
2024-04-18T19:20:02.110Z,159.38
2024-04-18T19:22:29.270Z,158.60
2024-04-18T19:24:58.984Z,158.52
2024-04-18T19:27:28.853Z,158.10
2024-04-18T19:29:57.337Z,158.40
2024-04-18T19:32:28.090Z,158.32
2024-04-18T19:34:57.956Z,158.93
2024-04-18T19:37:27.801Z,159.10
2024-04-18T19:39:56.244Z,159.50
2024-04-18T19:42:27.077Z,159.40
2024-04-18T19:44:54.267Z,159.35
2024-04-18T19:47:24.071Z,158.43
2024-04-18T19:49:51.354Z,159.52
2024-04-18T19:52:23.723Z,158.57
2024-04-18T19:54:51.444Z,158.63
2024-04-18T19:57:21.406Z,159.43
2024-04-18T19:59:48.656Z,161.05
2024-04-18T20:02:18.594Z,161.23
2024-04-18T20:04:45.830Z,161.95
2024-04-18T20:07:15.564Z,160.98
2024-04-18T20:09:45.432Z,161.23
2024-04-18T20:12:15.340Z,160.93
2024-04-18T20:15:02.571Z,160.43
2024-04-18T20:17:32.323Z,160.68
2024-04-18T20:19:59.620Z,160.52
2024-04-18T20:22:29.373Z,161.18
2024-04-18T20:24:59.121Z,160.45
2024-04-18T20:27:44.757Z,161.38
2024-04-18T20:30:12.848Z,161.40
2024-04-18T20:33:02.661Z,161.88
2024-04-18T20:35:32.498Z,161.45
2024-04-18T20:38:02.476Z,161.55
2024-04-18T20:40:32.300Z,161.75
2024-04-18T20:43:02.004Z,162.00
2024-04-18T20:45:31.550Z,162.77
2024-04-18T20:48:01.740Z,162.85
2024-04-18T20:50:29.020Z,162.50
2024-04-18T20:52:58.970Z,163.38
2024-04-18T20:55:26.795Z,162.80
2024-04-18T20:57:59.387Z,163.00
2024-04-18T21:00:26.859Z,163.88
2024-04-18T21:02:56.848Z,162.82
2024-04-18T21:05:23.997Z,162.88
2024-04-18T21:07:53.778Z,164.23
2024-04-18T21:10:21.123Z,161.77
2024-04-18T21:12:50.907Z,162.48
2024-04-18T21:15:20.774Z,164.00
2024-04-18T21:17:50.699Z,163.45
2024-04-18T21:20:18.015Z,164.27
2024-04-18T21:22:49.350Z,164.25
2024-04-18T21:25:16.812Z,163.35
2024-04-18T21:27:46.546Z,164.88
2024-04-18T21:30:16.384Z,164.75
2024-04-18T21:32:46.304Z,165.32
2024-04-18T21:35:34.829Z,165.40
2024-04-18T21:38:02.124Z,165.20
2024-04-18T21:40:31.969Z,165.25
2024-04-18T21:43:03.840Z,165.10
2024-04-18T21:45:34.616Z,167.20
2024-04-18T21:48:05.696Z,166.55
2024-04-18T21:50:35.640Z,167.27
2024-04-18T21:53:02.976Z,166.27
2024-04-18T21:55:33.046Z,165.63
2024-04-18T21:58:00.165Z,168.80
2024-04-18T22:00:30.138Z,166.10
2024-04-18T22:02:57.326Z,166.02
2024-04-18T22:05:29.747Z,167.18
2024-04-18T22:08:01.639Z,166.65
2024-04-18T22:10:31.486Z,166.20
2024-04-18T22:12:58.692Z,166.30
2024-04-18T22:15:28.536Z,166.90
2024-04-18T22:17:58.465Z,166.05
2024-04-18T22:20:28.480Z,168.05
2024-04-18T22:23:16.235Z,166.82
2024-04-18T22:25:46.034Z,166.32
2024-04-18T22:28:15.757Z,167.27
2024-04-18T22:30:43.038Z,168.00
2024-04-18T22:33:12.946Z,167.52
2024-04-18T22:35:42.770Z,167.80
2024-04-18T22:38:12.636Z,166.93
2024-04-18T22:40:39.799Z,167.88
2024-04-18T22:43:09.650Z,167.77
2024-04-18T22:45:39.485Z,168.35
2024-04-18T22:48:07.727Z,167.30
2024-04-18T22:50:38.234Z,166.45
2024-04-18T22:53:08.081Z,165.13
2024-04-18T22:55:37.756Z,165.10
2024-04-18T22:58:07.849Z,165.88
2024-04-18T23:00:39.359Z,164.25
2024-04-18T23:03:07.535Z,166.02
2024-04-18T23:05:40.627Z,165.95
2024-04-18T23:08:10.486Z,165.98
2024-04-18T23:10:40.367Z,165.55
2024-04-18T23:13:07.545Z,166.27
2024-04-18T23:18:24.575Z,168.40
2024-04-18T23:20:55.829Z,167.38
2024-04-18T23:26:05.439Z,169.25
2024-04-18T23:28:32.609Z,168.80
2024-04-18T23:31:02.543Z,167.85
2024-04-18T23:33:32.327Z,166.68
2024-04-18T23:36:01.279Z,167.23
2024-04-18T23:41:01.009Z,171.55
2024-04-18T23:43:30.787Z,168.23
2024-04-18T23:45:57.992Z,167.95
2024-04-18T23:48:27.739Z,167.20
2024-04-18T23:50:55.029Z,167.80
2024-04-18T23:53:24.771Z,167.60
2024-04-18T23:55:51.959Z,167.27
2024-04-18T23:58:24.330Z,168.57
